createdAt,value
2023-02-18T00:00:07.096Z,73.41
2023-02-18T00:01:07.107Z,73.50
2023-02-18T00:02:07.151Z,73.31
2023-02-18T00:03:07.120Z,73.50
2023-02-18T00:04:07.151Z,73.31
2023-02-18T00:05:07.145Z,73.03
2023-02-18T00:06:07.436Z,72.64
2023-02-18T00:07:07.150Z,72.27
2023-02-18T00:08:07.155Z,72.74
2023-02-18T00:09:07.169Z,73.12
2023-02-18T00:10:07.176Z,73.31
2023-02-18T00:11:07.191Z,73.22
2023-02-18T00:12:07.193Z,73.12
2023-02-18T00:13:07.197Z,73.12
2023-02-18T00:14:07.216Z,72.93
2023-02-18T00:15:07.212Z,73.22
2023-02-18T00:16:07.687Z,72.55
2023-02-18T00:17:07.236Z,73.12
2023-02-18T00:18:07.233Z,73.22
2023-02-18T00:19:07.245Z,73.31
2023-02-18T00:20:07.275Z,73.69
2023-02-18T00:21:07.268Z,73.31
2023-02-18T00:22:07.267Z,73.31
2023-02-18T00:23:07.279Z,73.12
2023-02-18T00:24:07.283Z,73.69
2023-02-18T00:25:07.296Z,73.41
2023-02-18T00:26:07.698Z,73.84
2023-02-18T00:27:07.378Z,73.50
2023-02-18T00:28:07.317Z,73.60
2023-02-18T00:29:07.330Z,73.97
2023-02-18T00:30:07.470Z,73.79
2023-02-18T00:31:07.491Z,74.16
2023-02-18T00:32:07.417Z,74.26
2023-02-18T00:33:07.362Z,74.16
2023-02-18T00:34:07.381Z,74.45
2023-02-18T00:35:07.378Z,73.79
2023-02-18T00:36:07.693Z,73.79
2023-02-18T00:37:07.411Z,73.84
2023-02-18T00:38:07.396Z,74.13
2023-02-18T00:39:07.420Z,74.16
2023-02-18T00:40:07.413Z,74.41
2023-02-18T00:41:07.426Z,74.22
2023-02-18T00:42:07.438Z,74.69
2023-02-18T00:43:07.445Z,74.60
2023-02-18T00:44:07.451Z,74.88
2023-02-18T00:45:07.464Z,75.26
2023-02-18T00:46:07.797Z,75.26
2023-02-18T00:47:07.472Z,75.74
2023-02-18T00:48:07.474Z,75.64
2023-02-18T00:49:07.486Z,75.64
2023-02-18T00:50:07.501Z,75.74
2023-02-18T00:51:07.506Z,75.93
2023-02-18T00:52:07.529Z,75.84
2023-02-18T00:53:07.525Z,75.64
2023-02-18T00:54:07.522Z,75.55
2023-02-18T00:55:07.532Z,75.74
2023-02-18T00:56:07.980Z,75.26
2023-02-18T00:57:07.550Z,75.64
2023-02-18T00:58:07.566Z,75.17
2023-02-18T00:59:07.569Z,75.17
2023-02-18T01:00:07.569Z,74.98
2023-02-18T01:01:07.857Z,74.83
2023-02-18T01:02:07.593Z,75.45
2023-02-18T01:03:07.619Z,75.11
2023-02-18T01:04:07.603Z,75.49
2023-02-18T01:05:07.614Z,75.78
2023-02-18T01:06:08.207Z,75.78
2023-02-18T01:07:07.634Z,76.12
2023-02-18T01:08:07.655Z,76.03
2023-02-18T01:09:07.647Z,76.12
2023-02-18T01:10:07.656Z,76.12
2023-02-18T01:11:07.702Z,75.84
2023-02-18T01:12:07.668Z,75.93
2023-02-18T01:13:07.691Z,76.31
2023-02-18T01:14:07.685Z,76.12
2023-02-18T01:15:07.725Z,76.78
2023-02-18T01:16:08.270Z,76.78
2023-02-18T01:17:07.718Z,76.68
2023-02-18T01:18:07.717Z,76.68
2023-02-18T01:19:07.738Z,76.40
2023-02-18T01:20:07.744Z,76.50
2023-02-18T01:21:07.747Z,76.68
2023-02-18T01:22:07.763Z,77.06
2023-02-18T01:23:07.785Z,77.35
2023-02-18T01:24:07.787Z,77.73
2023-02-18T01:25:07.780Z,77.35
2023-02-18T01:26:08.145Z,76.97
2023-02-18T01:27:07.809Z,78.02
2023-02-18T01:28:07.802Z,78.11
2023-02-18T01:29:07.812Z,78.39
2023-02-18T01:30:07.875Z,78.87
2023-02-18T01:31:07.942Z,78.30
2023-02-18T01:32:08.032Z,78.11
2023-02-18T01:33:07.848Z,76.97
2023-02-18T01:34:07.848Z,76.97
2023-02-18T01:35:07.861Z,77.16
2023-02-18T01:36:08.240Z,77.25
2023-02-18T01:37:07.880Z,77.16
2023-02-18T01:38:07.877Z,77.25
2023-02-18T01:39:07.894Z,77.16
2023-02-18T01:40:07.916Z,76.59
2023-02-18T01:41:07.914Z,76.50
2023-02-18T01:42:07.906Z,76.50
2023-02-18T01:43:07.917Z,76.31
2023-02-18T01:44:07.920Z,76.21
2023-02-18T01:45:07.940Z,75.93
2023-02-18T01:46:08.250Z,75.64
2023-02-18T01:47:07.947Z,75.74
2023-02-18T01:48:07.948Z,75.74
2023-02-18T01:49:07.961Z,75.74
2023-02-18T01:50:07.970Z,75.74
2023-02-18T01:51:07.977Z,76.03
2023-02-18T01:52:07.980Z,75.64
2023-02-18T01:53:08.021Z,75.45
2023-02-18T01:54:07.993Z,75.45
2023-02-18T01:55:08.015Z,75.45
2023-02-18T01:56:08.430Z,75.07
2023-02-18T01:57:08.021Z,75.45
2023-02-18T01:58:08.027Z,75.07
2023-02-18T01:59:08.040Z,75.26
2023-02-18T02:00:08.042Z,75.26
2023-02-18T02:01:08.123Z,74.69
2023-02-18T02:02:08.093Z,75.17
2023-02-18T02:03:08.086Z,74.79
2023-02-18T02:04:08.072Z,75.07
2023-02-18T02:05:08.116Z,75.17
2023-02-18T02:06:08.408Z,74.98
2023-02-18T02:07:08.111Z,74.79
2023-02-18T02:08:08.104Z,74.98
2023-02-18T02:09:08.118Z,75.26
2023-02-18T02:10:08.116Z,75.84
2023-02-18T02:11:08.175Z,75.55
2023-02-18T02:12:08.156Z,76.03
2023-02-18T02:13:08.147Z,76.03
2023-02-18T02:14:08.148Z,75.93
2023-02-18T02:15:08.157Z,76.40
2023-02-18T02:16:08.480Z,76.21
2023-02-18T02:17:08.175Z,76.87
2023-02-18T02:18:08.176Z,76.12
2023-02-18T02:19:08.194Z,76.12
2023-02-18T02:20:08.203Z,76.12
2023-02-18T02:21:08.205Z,76.78
2023-02-18T02:22:08.208Z,76.50
2023-02-18T02:23:08.222Z,77.06
2023-02-18T02:24:08.233Z,76.97
2023-02-18T02:25:08.251Z,76.97
2023-02-18T02:26:08.518Z,77.35
2023-02-18T02:27:08.249Z,77.83
2023-02-18T02:28:08.274Z,78.11
2023-02-18T02:29:08.266Z,78.77
2023-02-18T02:30:08.312Z,78.96
2023-02-18T02:31:08.425Z,79.53
2023-02-18T02:32:08.285Z,80.86
2023-02-18T02:33:08.294Z,81.24
2023-02-18T02:34:08.300Z,81.99
2023-02-18T02:35:08.311Z,82.18
2023-02-18T02:36:08.687Z,82.94
2023-02-18T02:37:08.335Z,82.75
2023-02-18T02:38:08.350Z,82.56
2023-02-18T02:39:08.343Z,83.23
2023-02-18T02:40:08.348Z,83.13
2023-02-18T02:41:08.360Z,82.66
2023-02-18T02:42:08.358Z,82.09
2023-02-18T02:43:08.377Z,81.90
2023-02-18T02:44:08.401Z,81.71
2023-02-18T02:45:08.391Z,81.52
2023-02-18T02:46:08.992Z,81.90
2023-02-18T02:47:08.401Z,81.99
2023-02-18T02:48:08.413Z,81.62
2023-02-18T02:49:08.432Z,81.71
2023-02-18T02:50:08.422Z,81.43
2023-02-18T02:51:08.435Z,81.71
2023-02-18T02:52:08.446Z,81.33
2023-02-18T02:53:08.466Z,81.52
2023-02-18T02:54:08.558Z,81.05
2023-02-18T02:55:08.464Z,81.05
2023-02-18T02:56:08.808Z,80.48
2023-02-18T02:57:08.490Z,80.10
2023-02-18T02:58:08.484Z,79.72
2023-02-18T02:59:08.497Z,79.34
2023-02-18T03:00:08.520Z,79.63
2023-02-18T03:01:08.548Z,80.19
2023-02-18T03:02:08.515Z,80.19
2023-02-18T03:03:08.552Z,79.72
2023-02-18T03:04:08.530Z,80.29
2023-02-18T03:05:08.541Z,80.29
2023-02-18T03:06:08.903Z,80.19
2023-02-18T03:07:08.561Z,80.57
2023-02-18T03:08:08.567Z,80.10
2023-02-18T03:09:08.577Z,80.57
2023-02-18T03:10:08.580Z,80.10
2023-02-18T03:11:08.602Z,80.00
2023-02-18T03:12:08.593Z,80.19
2023-02-18T03:13:08.616Z,80.19
2023-02-18T03:14:08.610Z,80.00
2023-02-18T03:15:08.620Z,80.19
2023-02-18T03:16:09.055Z,80.29
2023-02-18T03:17:08.635Z,80.57
2023-02-18T03:18:08.636Z,80.29
2023-02-18T03:19:09.214Z,80.10
2023-02-18T03:20:08.670Z,80.76
2023-02-18T03:21:08.665Z,80.19
2023-02-18T03:22:08.772Z,80.10
2023-02-18T03:23:08.683Z,79.72
2023-02-18T03:24:08.681Z,79.91
2023-02-18T03:25:08.703Z,79.06
2023-02-18T03:26:09.086Z,79.44
2023-02-18T03:27:08.705Z,78.87
2023-02-18T03:28:08.718Z,78.77
2023-02-18T03:29:08.722Z,79.06
2023-02-18T03:30:08.824Z,78.87
2023-02-18T03:31:08.757Z,78.96
2023-02-18T03:32:08.818Z,78.77
2023-02-18T03:33:08.749Z,78.77
2023-02-18T03:34:08.770Z,78.58
2023-02-18T03:35:08.769Z,78.67
2023-02-18T03:36:09.155Z,78.77
2023-02-18T03:37:08.787Z,78.96
2023-02-18T03:38:08.789Z,78.30
2023-02-18T03:39:08.799Z,78.30
2023-02-18T03:40:08.803Z,78.39
2023-02-18T03:41:08.812Z,78.02
2023-02-18T03:42:08.823Z,78.20
2023-02-18T03:43:08.826Z,77.73
2023-02-18T03:44:08.861Z,78.11
2023-02-18T03:45:08.858Z,78.11
2023-02-18T03:46:09.203Z,78.02
2023-02-18T03:47:08.860Z,77.64
2023-02-18T03:48:08.888Z,77.16
2023-02-18T03:49:08.872Z,77.35
2023-02-18T03:50:08.887Z,77.54
2023-02-18T03:51:08.887Z,78.02
2023-02-18T03:52:08.903Z,78.07
2023-02-18T03:53:08.908Z,78.07
2023-02-18T03:54:08.928Z,78.07
2023-02-18T03:55:08.926Z,77.50
2023-02-18T03:56:09.223Z,77.40
2023-02-18T03:57:08.930Z,77.12
2023-02-18T03:58:08.939Z,76.84
2023-02-18T03:59:08.948Z,76.46
2023-02-18T04:00:08.955Z,76.65
2023-02-18T04:01:08.982Z,76.46
2023-02-18T04:02:08.963Z,76.65
2023-02-18T04:03:08.969Z,76.55
2023-02-18T04:04:09.026Z,76.55
2023-02-18T04:05:08.982Z,76.65
2023-02-18T04:06:09.330Z,76.84
2023-02-18T04:07:09.003Z,76.84
2023-02-18T04:08:09.008Z,76.65
2023-02-18T04:09:09.346Z,76.93
2023-02-18T04:10:09.028Z,77.03
2023-02-18T04:11:09.026Z,76.93
2023-02-18T04:12:09.037Z,77.12
2023-02-18T04:13:09.045Z,77.12
2023-02-18T04:14:09.053Z,77.12
2023-02-18T04:15:09.054Z,76.55
2023-02-18T04:16:09.331Z,76.65
2023-02-18T04:17:09.069Z,76.65
2023-02-18T04:18:09.082Z,76.65
2023-02-18T04:19:09.084Z,77.03
2023-02-18T04:20:09.121Z,77.12
2023-02-18T04:21:09.105Z,77.12
2023-02-18T04:22:09.110Z,77.12
2023-02-18T04:23:09.116Z,77.50
2023-02-18T04:24:09.122Z,77.22
2023-02-18T04:25:09.137Z,77.31
2023-02-18T04:26:09.602Z,77.31
2023-02-18T04:27:09.142Z,77.40
2023-02-18T04:28:09.153Z,76.93
2023-02-18T04:29:09.162Z,77.31
2023-02-18T04:30:09.189Z,77.22
2023-02-18T04:31:09.484Z,77.78
2023-02-18T04:32:09.179Z,77.12
2023-02-18T04:33:09.187Z,76.93
2023-02-18T04:34:09.205Z,77.12
2023-02-18T04:35:09.208Z,77.12
2023-02-18T04:36:09.647Z,77.31
2023-02-18T04:37:09.225Z,77.22
2023-02-18T04:38:09.236Z,77.31
2023-02-18T04:39:09.229Z,77.40
2023-02-18T04:40:09.241Z,77.40
2023-02-18T04:41:09.274Z,77.97
2023-02-18T04:42:09.270Z,78.07
2023-02-18T04:43:09.257Z,77.78
2023-02-18T04:44:09.288Z,78.45
2023-02-18T04:45:09.287Z,78.73
2023-02-18T04:46:09.664Z,78.64
2023-02-18T04:47:09.285Z,78.64
2023-02-18T04:48:09.298Z,78.45
2023-02-18T04:49:09.301Z,78.45
2023-02-18T04:50:09.317Z,78.35
2023-02-18T04:51:09.319Z,78.16
2023-02-18T04:52:09.343Z,78.26
2023-02-18T04:53:09.330Z,78.45
2023-02-18T04:54:09.440Z,78.35
2023-02-18T04:55:09.342Z,78.26
2023-02-18T04:56:09.892Z,78.16
2023-02-18T04:57:09.366Z,78.83
2023-02-18T04:58:09.367Z,78.16
2023-02-18T04:59:09.370Z,78.07
2023-02-18T05:00:09.387Z,79.02
2023-02-18T05:01:09.441Z,79.30
2023-02-18T05:02:09.396Z,79.30
2023-02-18T05:03:09.401Z,79.87
2023-02-18T05:04:09.468Z,80.44
2023-02-18T05:05:09.434Z,81.48
2023-02-18T05:06:09.710Z,81.67
2023-02-18T05:07:09.432Z,82.24
2023-02-18T05:08:09.456Z,81.86
2023-02-18T05:09:09.445Z,82.71
2023-02-18T05:10:09.454Z,82.71
2023-02-18T05:11:09.456Z,82.81
2023-02-18T05:12:09.472Z,82.81
2023-02-18T05:13:09.473Z,82.71
2023-02-18T05:14:09.494Z,82.62
2023-02-18T05:15:09.494Z,82.90
2023-02-18T05:16:09.970Z,82.71
2023-02-18T05:17:09.501Z,82.62
2023-02-18T05:18:09.510Z,81.95
2023-02-18T05:19:09.513Z,82.05
2023-02-18T05:20:10.050Z,81.67
2023-02-18T05:21:09.533Z,81.01
2023-02-18T05:22:09.542Z,80.63
2023-02-18T05:23:09.543Z,80.53
2023-02-18T05:24:09.576Z,80.06
2023-02-18T05:25:09.574Z,80.53
2023-02-18T05:26:10.078Z,80.06
2023-02-18T05:27:09.694Z,79.49
2023-02-18T05:28:09.581Z,79.96
2023-02-18T05:29:09.584Z,80.44
2023-02-18T05:30:09.645Z,80.72
2023-02-18T05:31:09.799Z,80.91
2023-02-18T05:32:09.674Z,80.91
2023-02-18T05:33:09.612Z,81.48
2023-02-18T05:34:09.625Z,81.67
2023-02-18T05:35:09.634Z,81.67
2023-02-18T05:36:09.903Z,81.48
2023-02-18T05:37:09.637Z,81.38
2023-02-18T05:38:09.643Z,80.53
2023-02-18T05:39:09.657Z,80.34
2023-02-18T05:40:09.683Z,80.53
2023-02-18T05:41:09.666Z,80.06
2023-02-18T05:42:09.676Z,79.96
2023-02-18T05:43:09.679Z,79.87
2023-02-18T05:44:09.688Z,80.06
2023-02-18T05:45:09.691Z,80.44
2023-02-18T05:46:09.966Z,80.72
2023-02-18T05:47:11.440Z,80.82
2023-02-18T05:48:09.715Z,80.82
2023-02-18T05:49:09.726Z,80.44
2023-02-18T05:50:09.729Z,80.15
2023-02-18T05:51:09.832Z,80.25
2023-02-18T05:52:09.746Z,80.72
2023-02-18T05:53:09.748Z,80.53
2023-02-18T05:54:09.753Z,80.06
2023-02-18T05:55:09.761Z,79.58
2023-02-18T05:56:10.200Z,79.39
2023-02-18T05:57:09.771Z,80.15
2023-02-18T05:58:09.785Z,80.06
2023-02-18T05:59:09.786Z,79.87
2023-02-18T06:00:09.797Z,79.77
2023-02-18T06:01:09.803Z,80.25
2023-02-18T06:02:09.812Z,80.06
2023-02-18T06:03:09.814Z,80.06
2023-02-18T06:04:09.826Z,79.96
2023-02-18T06:05:09.830Z,79.87
2023-02-18T06:06:10.189Z,79.96
2023-02-18T06:07:09.845Z,80.53
2023-02-18T06:08:09.854Z,81.01
2023-02-18T06:09:09.863Z,80.63
2023-02-18T06:10:09.869Z,80.91
2023-02-18T06:11:09.871Z,81.48
2023-02-18T06:12:09.901Z,81.01
2023-02-18T06:13:09.885Z,80.44
2023-02-18T06:14:09.895Z,80.15
2023-02-18T06:15:09.897Z,79.58
2023-02-18T06:16:10.331Z,79.58
2023-02-18T06:17:09.928Z,79.39
2023-02-18T06:18:09.922Z,79.58
2023-02-18T06:19:09.933Z,79.58
2023-02-18T06:20:09.938Z,79.49
2023-02-18T06:21:09.949Z,79.87
2023-02-18T06:22:09.949Z,79.39
2023-02-18T06:23:11.642Z,79.77
2023-02-18T06:24:09.974Z,80.06
2023-02-18T06:25:09.970Z,79.58
2023-02-18T06:26:10.176Z,79.49
2023-02-18T06:27:09.999Z,79.49
2023-02-18T06:28:10.045Z,79.49
2023-02-18T06:29:09.997Z,79.49
2023-02-18T06:30:10.023Z,78.92
2023-02-18T06:31:10.147Z,78.92
2023-02-18T06:32:10.168Z,78.83
2023-02-18T06:33:10.026Z,79.02
2023-02-18T06:34:10.043Z,78.26
2023-02-18T06:35:10.041Z,78.16
2023-02-18T06:36:10.454Z,78.45
2023-02-18T06:37:10.049Z,78.16
2023-02-18T06:38:10.062Z,78.35
2023-02-18T06:39:10.063Z,78.16
2023-02-18T06:40:10.074Z,78.73
2023-02-18T06:41:10.078Z,79.21
2023-02-18T06:42:10.091Z,79.49
2023-02-18T06:43:10.090Z,79.49
2023-02-18T06:44:10.121Z,80.06
2023-02-18T06:45:10.110Z,80.06
2023-02-18T06:46:10.390Z,80.34
2023-02-18T06:47:10.117Z,80.25
2023-02-18T06:48:10.138Z,80.06
2023-02-18T06:49:10.131Z,80.34
2023-02-18T06:50:10.142Z,80.34
2023-02-18T06:51:10.153Z,80.44
2023-02-18T06:52:10.157Z,80.15
2023-02-18T06:53:10.163Z,80.06
2023-02-18T06:54:10.166Z,79.77
2023-02-18T06:55:10.174Z,80.53
2023-02-18T06:56:10.464Z,80.44
2023-02-18T06:57:10.187Z,80.44
2023-02-18T06:58:10.236Z,80.06
2023-02-18T06:59:10.199Z,80.15
2023-02-18T07:00:10.231Z,79.58
2023-02-18T07:01:10.276Z,79.68
2023-02-18T07:02:10.224Z,79.11
2023-02-18T07:03:10.232Z,79.30
2023-02-18T07:04:10.261Z,79.58
2023-02-18T07:05:10.242Z,79.77
2023-02-18T07:06:10.571Z,79.30
2023-02-18T07:07:10.258Z,79.21
2023-02-18T07:08:10.331Z,79.11
2023-02-18T07:09:10.273Z,78.83
2023-02-18T07:10:10.282Z,78.35
2023-02-18T07:11:10.287Z,78.35
2023-02-18T07:12:10.296Z,78.30
2023-02-18T07:13:10.303Z,78.11
2023-02-18T07:14:10.308Z,77.45
2023-02-18T07:15:10.320Z,77.16
2023-02-18T07:16:10.865Z,76.87
2023-02-18T07:17:10.329Z,77.16
2023-02-18T07:18:10.335Z,76.68
2023-02-18T07:19:10.346Z,76.50
2023-02-18T07:20:10.354Z,76.78
2023-02-18T07:21:10.354Z,75.93
2023-02-18T07:22:10.374Z,76.03
2023-02-18T07:23:10.379Z,75.64
2023-02-18T07:24:10.381Z,76.03
2023-02-18T07:25:10.385Z,76.40
2023-02-18T07:26:10.667Z,76.68
2023-02-18T07:27:10.397Z,76.68
2023-02-18T07:28:10.413Z,76.03
2023-02-18T07:29:10.412Z,75.93
2023-02-18T07:30:10.567Z,75.93
2023-02-18T07:31:10.631Z,75.07
2023-02-18T07:32:10.580Z,74.98
2023-02-18T07:33:10.450Z,74.88
2023-02-18T07:34:10.452Z,75.07
2023-02-18T07:35:10.456Z,76.03
2023-02-18T07:36:10.798Z,75.93
2023-02-18T07:37:10.482Z,75.93
2023-02-18T07:38:10.484Z,76.21
2023-02-18T07:39:10.486Z,76.31
2023-02-18T07:40:10.499Z,76.03
2023-02-18T07:41:10.501Z,75.64
2023-02-18T07:42:10.512Z,75.64
2023-02-18T07:43:10.516Z,76.03
2023-02-18T07:44:10.527Z,75.45
2023-02-18T07:45:10.589Z,75.26
2023-02-18T07:46:10.936Z,75.07
2023-02-18T07:47:10.546Z,74.79
2023-02-18T07:48:10.577Z,75.07
2023-02-18T07:49:10.576Z,75.26
2023-02-18T07:50:10.604Z,74.98
2023-02-18T07:51:10.584Z,74.98
2023-02-18T07:52:10.583Z,75.26
2023-02-18T07:53:10.594Z,74.98
2023-02-18T07:54:10.600Z,74.98
2023-02-18T07:55:10.606Z,74.22
2023-02-18T07:56:10.818Z,73.75
2023-02-18T07:57:10.622Z,74.13
2023-02-18T07:58:10.651Z,74.41
2023-02-18T07:59:10.652Z,74.13
2023-02-18T08:00:10.661Z,74.41
2023-02-18T08:01:10.660Z,73.75
2023-02-18T08:02:10.684Z,74.13
2023-02-18T08:03:10.667Z,74.79
2023-02-18T08:04:10.717Z,74.98
2023-02-18T08:05:10.685Z,74.79
2023-02-18T08:06:11.030Z,75.07
2023-02-18T08:07:10.699Z,75.17
2023-02-18T08:08:10.704Z,75.36
2023-02-18T08:09:10.721Z,75.17
2023-02-18T08:10:10.720Z,75.36
2023-02-18T08:11:19.038Z,75.11
2023-02-18T08:12:10.745Z,75.17
2023-02-18T08:13:10.756Z,75.31
2023-02-18T08:14:10.757Z,75.02
2023-02-18T08:15:10.767Z,75.59
2023-02-18T08:16:11.226Z,75.49
2023-02-18T08:17:10.779Z,75.21
2023-02-18T08:18:10.781Z,75.96
2023-02-18T08:19:10.805Z,76.73
2023-02-18T08:20:10.819Z,76.44
2023-02-18T08:21:10.815Z,79.14
2023-02-18T08:22:10.820Z,79.42
2023-02-18T08:23:10.829Z,76.57
2023-02-18T08:24:10.834Z,75.34
2023-02-18T08:25:23.996Z,73.35
2023-02-18T08:26:11.105Z,73.44
2023-02-18T08:27:10.856Z,73.16
2023-02-18T08:28:10.864Z,73.54
2023-02-18T08:29:10.880Z,73.07
2023-02-18T08:30:10.937Z,73.48
2023-02-18T08:31:11.117Z,71.67
2023-02-18T08:32:10.953Z,71.11
2023-02-18T08:33:10.908Z,71.01
2023-02-18T08:34:10.914Z,71.01
2023-02-18T08:35:10.923Z,69.78
2023-02-18T08:36:11.240Z,70.35
2023-02-18T08:37:10.939Z,69.11
2023-02-18T08:38:10.949Z,69.30
2023-02-18T08:39:10.952Z,68.92
2023-02-18T08:40:10.961Z,68.44
2023-02-18T08:41:11.229Z,68.86
2023-02-18T08:42:10.971Z,68.44
2023-02-18T08:43:10.988Z,68.35
2023-02-18T08:44:10.998Z,69.11
2023-02-18T08:45:11.001Z,69.02
2023-02-18T08:46:15.827Z,68.54
2023-02-18T08:48:17.901Z,68.26
2023-02-18T08:48:18.593Z,68.07
2023-02-18T08:49:11.047Z,68.54
2023-02-18T08:50:11.037Z,69.78
2023-02-18T08:51:11.496Z,69.53
2023-02-18T08:52:11.073Z,69.15
2023-02-18T08:53:11.064Z,68.48
2023-02-18T08:54:11.069Z,66.96
2023-02-18T08:55:11.081Z,66.49
2023-02-18T08:56:11.102Z,67.44
2023-02-18T08:57:11.096Z,69.05
2023-02-18T08:58:11.124Z,70.95
2023-02-18T08:59:11.110Z,69.18
2023-02-18T09:00:11.122Z,66.77
2023-02-18T09:01:11.448Z,66.87
2023-02-18T09:02:11.138Z,66.49
2023-02-18T09:03:11.156Z,66.33
2023-02-18T09:04:11.206Z,66.61
2023-02-18T09:05:11.164Z,66.20
2023-02-18T09:06:11.169Z,65.95
2023-02-18T09:07:11.199Z,65.38
2023-02-18T09:08:11.204Z,64.90
2023-02-18T09:09:11.200Z,65.76
2023-02-18T09:10:11.199Z,65.35
2023-02-18T09:11:11.542Z,65.38
2023-02-18T09:12:11.216Z,64.62
2023-02-18T09:13:11.230Z,65.09
2023-02-18T09:14:11.233Z,66.05
2023-02-18T09:15:11.247Z,65.60
2023-02-18T09:16:11.325Z,63.76
2023-02-18T09:17:11.265Z,63.57
2023-02-18T09:18:11.274Z,65.09
2023-02-18T09:19:11.280Z,65.41
2023-02-18T09:20:11.298Z,65.09
2023-02-18T09:21:11.562Z,63.57
2023-02-18T09:22:11.300Z,63.10
2023-02-18T09:23:11.311Z,62.91
2023-02-18T09:24:11.336Z,63.76
2023-02-18T09:25:11.347Z,64.65
2023-02-18T09:26:11.371Z,65.03
2023-02-18T09:27:11.490Z,64.84
2023-02-18T09:28:11.349Z,63.79
2023-02-18T09:29:11.363Z,63.23
2023-02-18T09:30:11.424Z,64.37
2023-02-18T09:31:12.002Z,63.70
2023-02-18T09:32:11.434Z,63.35
2023-02-18T09:33:11.397Z,61.90
2023-02-18T09:34:11.404Z,62.21
2023-02-18T09:35:11.416Z,61.16
2023-02-18T09:36:11.419Z,61.55
2023-02-18T09:37:11.433Z,60.69
2023-02-18T09:38:11.438Z,61.26
2023-02-18T09:39:11.450Z,57.96
2023-02-18T09:40:12.192Z,56.63
2023-02-18T09:41:11.473Z,55.49
2023-02-18T09:42:11.474Z,54.53
2023-02-18T09:43:11.487Z,55.39
2023-02-18T09:44:11.493Z,58.22
2023-02-18T09:45:11.523Z,60.91
2023-02-18T09:46:11.532Z,57.20
2023-02-18T09:47:11.524Z,54.75
2023-02-18T09:48:11.534Z,55.70
2023-02-18T09:49:11.550Z,53.30
2023-02-18T09:50:11.556Z,54.91
2023-02-18T09:51:11.562Z,57.96
2023-02-18T09:52:11.569Z,56.72
2023-02-18T09:53:11.591Z,57.20
2023-02-18T09:54:11.589Z,56.34
2023-02-18T09:55:11.610Z,57.29
2023-02-18T09:56:11.636Z,56.53
2023-02-18T09:57:11.622Z,57.29
2023-02-18T09:58:11.632Z,58.06
2023-02-18T09:59:11.655Z,57.77
2023-02-18T10:00:11.651Z,58.56
2023-02-18T10:01:12.117Z,58.18
2023-02-18T10:02:11.672Z,56.46
2023-02-18T10:03:11.691Z,56.27
2023-02-18T10:04:11.693Z,56.37
2023-02-18T10:05:11.706Z,56.46
2023-02-18T10:06:12.091Z,56.40
2023-02-18T10:07:11.725Z,52.94
2023-02-18T10:08:11.734Z,53.64
2023-02-18T10:09:11.752Z,55.73
2023-02-18T10:10:11.769Z,55.73
2023-02-18T10:11:11.770Z,55.16
2023-02-18T10:12:11.898Z,55.85
2023-02-18T10:13:11.792Z,54.52
2023-02-18T10:14:11.798Z,54.33
2023-02-18T10:15:11.827Z,52.71
2023-02-18T10:16:12.163Z,51.66
2023-02-18T10:17:11.839Z,50.61
2023-02-18T10:18:11.842Z,48.42
2023-02-18T10:19:11.853Z,49.82
2023-02-18T10:20:11.866Z,49.16
2023-02-18T10:21:11.880Z,48.37
2023-02-18T10:22:14.619Z,48.75
2023-02-18T10:23:11.901Z,49.51
2023-02-18T10:24:11.907Z,48.47
2023-02-18T10:25:11.923Z,49.80
2023-02-18T10:26:11.928Z,51.73
2023-02-18T10:27:11.943Z,52.20
2023-02-18T10:28:11.972Z,48.78
2023-02-18T10:29:11.973Z,48.99
2023-02-18T10:30:12.092Z,49.54
2023-02-18T10:31:12.386Z,51.09
2023-02-18T10:32:12.045Z,51.28
2023-02-18T10:33:12.031Z,50.78
2023-02-18T10:34:12.030Z,50.40
2023-02-18T10:35:12.050Z,51.54
2023-02-18T10:36:12.042Z,51.45
2023-02-18T10:37:12.057Z,52.11
2023-02-18T10:38:12.066Z,52.04
2023-02-18T10:39:12.079Z,51.47
2023-02-18T10:40:12.091Z,50.87
2023-02-18T10:41:12.107Z,51.56
2023-02-18T10:42:12.110Z,51.37
2023-02-18T10:43:12.123Z,52.04
2023-02-18T10:44:12.152Z,51.09
2023-02-18T10:45:12.151Z,49.56
2023-02-18T10:46:13.742Z,48.99
2023-02-18T10:47:12.172Z,49.66
2023-02-18T10:48:12.178Z,51.18
2023-02-18T10:49:12.197Z,51.18
2023-02-18T10:50:12.213Z,52.33
2023-02-18T10:51:12.222Z,50.92
2023-02-18T10:52:12.233Z,49.40
2023-02-18T10:53:12.266Z,50.83
2023-02-18T10:54:12.322Z,50.73
2023-02-18T10:55:12.282Z,50.57
2023-02-18T10:56:12.307Z,51.50
2023-02-18T10:57:12.319Z,52.16
2023-02-18T10:58:12.326Z,52.45
2023-02-18T10:59:12.352Z,51.43
2023-02-18T11:00:12.344Z,51.50
2023-02-18T11:01:12.338Z,50.73
2023-02-18T11:02:12.348Z,51.40
2023-02-18T11:03:12.375Z,50.63
2023-02-18T11:04:12.373Z,51.50
2023-02-18T11:05:12.394Z,53.05
2023-02-18T11:06:12.396Z,51.50
2023-02-18T11:07:12.421Z,51.40
2023-02-18T11:08:12.434Z,50.63
2023-02-18T11:09:12.452Z,50.83
2023-02-18T11:10:12.446Z,50.28
2023-02-18T11:11:12.464Z,51.14
2023-02-18T11:12:12.473Z,51.23
2023-02-18T11:13:12.491Z,50.67
2023-02-18T11:14:12.507Z,51.12
2023-02-18T11:15:12.512Z,53.81
2023-02-18T11:16:12.631Z,51.21
2023-02-18T11:17:12.544Z,50.18
2023-02-18T11:18:12.549Z,50.73
2023-02-18T11:19:12.565Z,52.73
2023-02-18T11:20:12.576Z,52.45
2023-02-18T11:21:12.593Z,52.00
2023-02-18T11:22:12.601Z,52.19
2023-02-18T11:23:12.615Z,51.59
2023-02-18T11:24:12.628Z,52.55
2023-02-18T11:25:12.643Z,53.14
2023-02-18T11:26:12.654Z,52.16
2023-02-18T11:27:14.585Z,52.64
2023-02-18T11:28:12.677Z,52.16
2023-02-18T11:29:12.695Z,51.90
2023-02-18T11:30:12.735Z,52.19
2023-02-18T11:31:12.957Z,52.38
2023-02-18T11:32:12.905Z,50.63
2023-02-18T11:33:13.164Z,51.37
2023-02-18T11:34:12.756Z,51.85
2023-02-18T11:35:12.777Z,53.02
2023-02-18T11:36:12.794Z,52.80
2023-02-18T11:37:12.807Z,51.76
2023-02-18T11:38:12.811Z,50.42
2023-02-18T11:39:12.826Z,51.50
2023-02-18T11:40:12.837Z,50.63
2023-02-18T11:41:12.857Z,50.73
2023-02-18T11:42:12.863Z,51.59
2023-02-18T11:43:12.881Z,52.16
2023-02-18T11:44:12.890Z,51.33
2023-02-18T11:45:12.905Z,49.87
2023-02-18T11:46:12.913Z,50.54
2023-02-18T11:47:12.945Z,51.59
2023-02-18T11:48:12.974Z,52.57
2023-02-18T11:49:12.970Z,52.19
2023-02-18T11:50:12.967Z,51.81
2023-02-18T11:51:12.981Z,52.26
2023-02-18T11:52:12.992Z,52.86
2023-02-18T11:53:13.011Z,52.00
2023-02-18T11:54:13.019Z,50.98
2023-02-18T11:55:13.044Z,49.80
2023-02-18T11:56:13.065Z,50.49
2023-02-18T11:57:13.068Z,49.54
2023-02-18T11:58:13.082Z,49.04
2023-02-18T11:59:13.093Z,50.67
2023-02-18T12:00:13.104Z,52.00
2023-02-18T12:01:13.126Z,51.43
2023-02-18T12:02:13.166Z,50.69
2023-02-18T12:03:13.164Z,46.39
2023-02-18T12:04:13.181Z,46.51
2023-02-18T12:05:13.266Z,46.97
2023-02-18T12:06:13.188Z,46.58
2023-02-18T12:07:13.199Z,47.54
2023-02-18T12:08:13.218Z,46.42
2023-02-18T12:09:13.227Z,45.94
2023-02-18T12:10:13.340Z,46.92
2023-02-18T12:11:13.254Z,45.01
2023-02-18T12:12:13.270Z,44.36
2023-02-18T12:13:13.287Z,45.58
2023-02-18T12:14:13.311Z,44.34
2023-02-18T12:15:13.307Z,44.24
2023-02-18T12:16:13.385Z,45.01
2023-02-18T12:17:13.345Z,45.70
2023-02-18T12:18:13.367Z,47.53
2023-02-18T12:19:13.368Z,46.31
2023-02-18T12:20:13.514Z,43.92
2023-02-18T12:21:13.396Z,40.84
2023-02-18T12:22:13.424Z,41.03
2023-02-18T12:23:13.424Z,41.32
2023-02-18T12:24:13.446Z,44.09
2023-02-18T12:25:13.456Z,43.30
2023-02-18T12:26:13.471Z,43.79
2023-02-18T12:27:13.498Z,45.03
2023-02-18T12:28:13.504Z,46.30
2023-02-18T12:29:13.513Z,45.26
2023-02-18T12:30:13.646Z,43.16
2023-02-18T12:31:13.554Z,44.33
2023-02-18T12:32:13.604Z,43.47
2023-02-18T12:33:13.575Z,40.81
2023-02-18T12:34:13.594Z,40.52
2023-02-18T12:35:13.602Z,42.34
2023-02-18T12:36:13.640Z,42.32
2023-02-18T12:37:13.644Z,43.26
2023-02-18T12:38:13.659Z,46.31
2023-02-18T12:39:13.670Z,46.25
2023-02-18T12:40:13.687Z,43.85
2023-02-18T12:41:13.698Z,40.90
2023-02-18T12:42:13.714Z,42.46
2023-02-18T12:43:13.727Z,43.49
2023-02-18T12:44:13.746Z,43.80
2023-02-18T12:45:13.760Z,40.90
2023-02-18T12:46:13.862Z,41.28
2023-02-18T12:47:13.791Z,41.77
2023-02-18T12:48:13.813Z,43.41
2023-02-18T12:49:13.820Z,41.65
2023-02-18T12:50:13.839Z,45.07
2023-02-18T12:51:13.853Z,43.56
2023-02-18T12:52:13.891Z,39.47